Time;durP1;ratioP1;P1;durP2;ratioP2;P2;SDS_P1;SDS_P2;PMS_P1;PMS_P2;Temp;Humidity;BMP_temperature;BMP_pressure;BME280_temperature;BME280_humidity;BME280_pressure;Samples;Min_cycle;Max_cycle;Signal;HPM_P1;HPM_P2
2022/03/28 00:01:11;;;;;;;;;37.00;31.25;;;;;17.47;45.99;102224.25;4994632;28;45998;-76
2022/03/28 00:03:37;;;;;;;;;44.00;33.00;;;;;17.44;46.36;102218.91;4996643;28;45405;-77
2022/03/28 00:06:04;;;;;;;;;35.50;31.75;;;;;17.40;46.55;102211.75;4994678;28;45323;-77
2022/03/28 00:08:30;;;;;;;;;38.75;34.25;;;;;17.31;45.92;102208.75;4994878;28;45698;-79
2022/03/28 00:10:56;;;;;;;;;34.25;30.00;;;;;17.24;45.84;102206.75;4976284;28;47106;-78
2022/03/28 00:13:22;;;;;;;;;42.25;33.75;;;;;16.95;46.16;102177.69;4994419;28;45389;-77
2022/03/28 00:15:48;;;;;;;;;41.75;33.25;;;;;16.97;46.80;102189.09;4994391;28;45373;-79
2022/03/28 00:18:14;;;;;;;;;33.25;30.75;;;;;16.99;46.71;102200.53;4994280;28;45402;-79
2022/03/28 00:20:40;;;;;;;;;41.50;35.25;;;;;16.99;46.74;102204.03;4993996;28;45846;-77
2022/03/28 00:23:06;;;;;;;;;41.50;34.00;;;;;16.89;47.36;102195.72;4993797;28;45322;-82
2022/03/28 00:25:33;;;;;;;;;37.75;31.25;;;;;16.88;48.02;102202.69;4994182;28;45357;-80
2022/03/28 00:27:58;;;;;;;;;42.00;31.25;;;;;16.79;48.00;102190.09;4993890;28;45518;-78
2022/03/28 00:30:25;;;;;;;;;43.25;36.00;;;;;16.71;48.44;102186.28;4994058;28;45731;-80
2022/03/28 00:32:50;;;;;;;;;43.25;36.50;;;;;16.82;48.96;102187.63;4994224;27;45392;-77
2022/03/28 00:35:17;;;;;;;;;43.50;35.75;;;;;16.85;49.21;102189.47;4993712;28;45412;-77
2022/03/28 00:37:43;;;;;;;;;40.25;34.25;;;;;16.82;49.23;102195.47;4994229;28;45316;-78
2022/03/28 00:40:11;;;;;;;;;40.25;33.75;;;;;16.78;49.77;102193.53;4993493;28;46130;-78
2022/03/28 00:42:37;;;;;;;;;39.75;35.50;;;;;16.77;49.31;102186.53;4995828;28;45282;-77
2022/03/28 00:45:05;;;;;;;;;35.75;31.00;;;;;16.73;49.45;102182.00;4996916;28;45321;-76
2022/03/28 00:47:31;;;;;;;;;44.00;33.50;;;;;16.75;49.68;102185.56;4994123;28;45438;-77
2022/03/28 00:49:57;;;;;;;;;41.00;35.00;;;;;16.72;50.05;102180.22;4993275;27;46091;-76
2022/03/28 00:52:24;;;;;;;;;37.50;32.50;;;;;16.68;50.25;102175.69;4994042;27;45898;-76
2022/03/28 00:54:50;;;;;;;;;41.00;33.75;;;;;16.66;51.45;102177.34;4994190;28;45353;-76
2022/03/28 00:57:17;;;;;;;;;36.00;32.75;;;;;16.54;50.73;102162.03;4993912;27;45403;-75
2022/03/28 00:59:44;;;;;;;;;37.00;30.75;;;;;16.57;51.12;102177.88;4993684;27;46323;-79
2022/03/28 01:02:10;;;;;;;;;49.25;37.50;;;;;16.50;51.25;102184.56;4993456;28;45936;-77
2022/03/28 01:04:37;;;;;;;;;37.75;33.25;;;;;16.37;52.80;102167.44;4993539;28;45434;-76
2022/03/28 01:07:06;;;;;;;;;14.25;12.75;;;;;16.33;52.51;102164.63;4993447;28;45468;-75
2022/03/28 01:09:33;;;;;;;;;35.50;28.50;;;;;16.25;52.80;102159.97;4993286;28;45978;-76
2022/03/28 01:12:00;;;;;;;;;44.00;35.50;;;;;16.32;52.65;102168.97;4993399;28;45769;-76
2022/03/28 01:14:26;;;;;;;;;39.00;30.50;;;;;16.30;53.14;102173.22;4976770;28;45387;-79
2022/03/28 01:19:37;;;;;;;;;46.00;36.00;;;;;16.17;53.07;102157.84;4993204;28;45384;-81
2022/03/28 01:22:03;;;;;;;;;42.75;36.00;;;;;16.13;53.14;102159.44;4995682;28;45318;-78
2022/03/28 01:24:29;;;;;;;;;40.50;34.25;;;;;16.05;53.65;102153.00;5000576;28;45469;-80
2022/03/28 01:26:55;;;;;;;;;31.25;31.25;;;;;16.15;54.29;102169.94;4994715;28;45846;-80
2022/03/28 01:29:21;;;;;;;;;44.25;35.75;;;;;16.13;54.90;102159.44;4993483;28;45995;-81
2022/03/28 01:31:46;;;;;;;;;41.50;35.00;;;;;16.01;55.76;102145.84;4993081;28;45339;-81
2022/03/28 01:34:17;;;;;;;;;42.00;35.50;;;;;16.02;55.54;102155.47;4998006;28;45228;-79
2022/03/28 01:36:45;;;;;;;;;46.25;37.00;;;;;15.98;57.33;102150.94;4995537;28;45383;-77
2022/03/28 01:39:10;;;;;;;;;36.25;32.25;;;;;16.01;57.02;102157.19;5012555;27;45695;-80
2022/03/28 01:41:36;;;;;;;;;43.25;35.50;;;;;15.94;57.12;102144.66;5003385;28;45244;-80
2022/03/28 01:44:01;;;;;;;;;41.00;32.75;;;;;15.96;57.92;102145.63;4993052;28;45359;-80
2022/03/28 01:46:27;;;;;;;;;42.00;35.00;;;;;15.90;58.11;102143.63;4993356;28;45323;-80
2022/03/28 01:48:52;;;;;;;;;46.25;36.25;;;;;15.89;58.52;102146.19;4993157;28;46078;-79
2022/03/28 01:51:18;;;;;;;;;41.50;34.75;;;;;15.86;58.48;102139.13;4992662;28;45336;-77
2022/03/28 01:53:43;;;;;;;;;42.25;36.25;;;;;15.80;58.14;102136.19;4992809;28;45193;-77
2022/03/28 01:56:09;;;;;;;;;43.50;35.75;;;;;15.74;58.58;102128.97;4992934;28;45577;-78
2022/03/28 01:58:35;;;;;;;;;38.25;32.25;;;;;15.77;58.25;102144.78;5001081;28;45596;-78
2022/03/28 02:01:00;;;;;;;;;41.50;35.75;;;;;15.74;58.91;102141.16;5012184;28;45339;-76
2022/03/28 02:03:26;;;;;;;;;40.00;33.00;;;;;15.72;58.76;102140.19;5016515;28;45348;-77
2022/03/28 02:05:51;;;;;;;;;42.25;35.50;;;;;15.66;58.90;102132.09;4998239;28;45315;-77
2022/03/28 02:08:17;;;;;;;;;44.00;38.50;;;;;15.66;58.72;102139.91;5006973;28;45554;-76
2022/03/28 02:10:42;;;;;;;;;47.50;34.75;;;;;15.62;59.04;102139.78;5012357;27;45326;-78
2022/03/28 02:13:08;;;;;;;;;43.75;35.50;;;;;15.58;59.56;102139.56;5012026;28;45350;-77
2022/03/28 02:15:34;;;;;;;;;43.25;34.25;;;;;15.46;60.64;102119.91;5011161;27;45635;-77
2022/03/28 02:17:59;;;;;;;;;46.25;37.25;;;;;15.48;60.67;102127.78;4992100;28;45619;-77
2022/03/28 02:20:25;;;;;;;;;43.00;35.75;;;;;15.50;61.17;102126.16;4994162;28;45463;-77
2022/03/28 02:22:51;;;;;;;;;45.00;36.75;;;;;15.57;60.76;102137.78;4978278;28;45443;-77
2022/03/28 02:25:17;;;;;;;;;42.00;34.00;;;;;15.60;60.78;102136.19;4995581;28;45334;-80
2022/03/28 02:27:44;;;;;;;;;40.75;33.75;;;;;15.61;60.21;102129.25;4995275;28;45601;-80
2022/03/28 02:30:11;;;;;;;;;38.50;33.50;;;;;15.59;60.46;102134.41;4995037;28;45293;-80
2022/03/28 02:32:37;;;;;;;;;41.25;35.75;;;;;15.57;60.49;102136.03;4975986;28;45335;-78
2022/03/28 02:35:05;;;;;;;;;34.75;31.75;;;;;15.47;60.59;102126.91;4991570;28;45619;-80
2022/03/28 02:37:31;;;;;;;;;45.25;34.50;;;;;15.39;61.05;102112.59;5014924;27;46516;-79
2022/03/28 02:39:57;;;;;;;;;40.75;35.50;;;;;15.46;61.46;102127.75;4997103;28;45355;-78
2022/03/28 02:42:22;;;;;;;;;44.50;36.00;;;;;15.38;61.76;102118.66;5018423;27;45267;-78
2022/03/28 02:44:51;;;;;;;;;46.75;38.50;;;;;15.47;62.18;102123.41;5017974;28;45216;-79
2022/03/28 02:47:21;;;;;;;;;46.25;35.00;;;;;15.48;61.67;102118.28;5014793;28;45387;-78
2022/03/28 02:49:47;;;;;;;;;44.00;33.00;;;;;15.51;62.25;102109.69;4974587;28;45785;-78
2022/03/28 02:52:13;;;;;;;;;35.50;33.00;;;;;15.47;62.03;102108.66;4993210;28;45340;-80
2022/03/28 02:54:39;;;;;;;;;43.00;33.50;;;;;15.32;62.38;102079.22;4978761;28;45613;-80
2022/03/28 02:57:04;;;;;;;;;42.25;35.75;;;;;15.45;62.89;102105.06;4994565;28;45353;-80
2022/03/28 02:59:30;;;;;;;;;44.75;34.75;;;;;15.29;62.71;102071.25;4994980;28;45406;-77
2022/03/28 03:01:56;;;;;;;;;38.50;32.75;;;;;15.45;62.42;102093.72;4994865;27;45386;-76
2022/03/28 03:04:21;;;;;;;;;36.50;32.25;;;;;15.41;62.76;102092.69;4995647;28;45470;-77
2022/03/28 03:06:47;;;;;;;;;43.50;35.75;;;;;15.32;63.08;102090.56;5006465;28;45950;-80
2022/03/28 03:09:12;;;;;;;;;41.25;35.00;;;;;15.35;62.94;102100.25;5003413;27;45426;-79
2022/03/28 03:11:40;;;;;;;;;46.25;36.75;;;;;15.31;63.52;102093.09;4994936;28;45381;-81
2022/03/28 03:14:06;;;;;;;;;40.00;34.25;;;;;15.21;63.52;102075.22;4995149;28;45294;-79
2022/03/28 03:16:31;;;;;;;;;43.00;36.75;;;;;15.26;64.11;102085.06;4995049;28;45907;-79
2022/03/28 03:18:57;;;;;;;;;42.00;33.25;;;;;15.22;64.88;102088.38;5000715;27;45342;-78
2022/03/28 03:21:23;;;;;;;;;44.75;36.50;;;;;15.16;65.18;102088.06;5008170;28;45236;-78
2022/03/28 03:23:49;;;;;;;;;41.50;34.00;;;;;15.08;65.43;102073.78;5000481;28;45235;-77
2022/03/28 03:26:14;;;;;;;;;44.75;35.50;;;;;15.08;65.90;102068.56;5012682;28;45459;-76
2022/03/28 03:28:40;;;;;;;;;43.50;37.50;;;;;15.10;66.54;102078.25;5014870;28;45329;-80
2022/03/28 03:31:06;;;;;;;;;39.75;34.00;;;;;14.98;67.30;102062.00;5013032;28;45326;-79
2022/03/28 03:33:32;;;;;;;;;42.75;34.50;;;;;14.99;68.03;102079.44;5009847;28;45434;-80
2022/03/28 03:36:00;;;;;;;;;42.25;34.75;;;;;14.93;68.50;102085.25;4994298;28;45932;-77
2022/03/28 03:38:26;;;;;;;;;45.25;35.50;;;;;14.84;68.38;102074.41;4994768;28;45369;-75
2022/03/28 03:40:52;;;;;;;;;45.25;36.75;;;;;14.82;68.91;102070.81;4977108;28;45421;-76
2022/03/28 03:43:18;;;;;;;;;44.00;35.00;;;;;14.88;69.14;102080.66;4994522;28;45519;-76
2022/03/28 03:45:44;;;;;;;;;45.25;35.50;;;;;14.88;68.57;102078.03;4994850;28;46379;-78
2022/03/28 03:48:09;;;;;;;;;46.75;35.50;;;;;14.85;68.49;102084.00;4997080;28;45219;-78
2022/03/28 03:50:35;;;;;;;;;43.00;34.50;;;;;14.81;68.61;102074.25;4978448;28;45219;-79
2022/03/28 03:53:01;;;;;;;;;36.00;33.00;;;;;14.66;68.79;102057.03;4994558;28;45354;-78
2022/03/28 03:55:26;;;;;;;;;44.75;36.50;;;;;14.77;69.30;102080.16;4994450;27;45550;-79
2022/03/28 03:57:52;;;;;;;;;44.75;37.75;;;;;14.72;69.67;102069.50;4995035;28;45292;-78
2022/03/28 04:00:17;;;;;;;;;43.00;33.00;;;;;14.69;70.34;102070.22;4998119;28;45319;-77
2022/03/28 04:02:44;;;;;;;;;45.00;37.25;;;;;14.71;70.02;102083.38;4998757;28;45440;-81
2022/03/28 04:05:09;;;;;;;;;45.00;36.00;;;;;14.64;69.93;102071.72;4994278;28;45464;-79
2022/03/28 04:07:35;;;;;;;;;48.50;39.00;;;;;14.46;71.37;102040.44;4994457;28;45478;-79
2022/03/28 04:10:01;;;;;;;;;45.00;36.00;;;;;14.64;71.61;102074.31;4994315;28;45365;-80
2022/03/28 04:12:27;;;;;;;;;38.00;33.25;;;;;14.60;71.30;102071.50;4994642;28;45565;-77
2022/03/28 04:14:57;;;;;;;;;44.25;35.25;;;;;14.51;71.81;102062.41;4994542;28;45381;-76
2022/03/28 04:17:23;;;;;;;;;43.00;34.75;;;;;14.44;71.75;102049.88;4994407;28;45967;-79
2022/03/28 04:19:49;;;;;;;;;43.00;35.00;;;;;14.51;72.59;102058.91;4994273;28;45333;-81
2022/03/28 04:22:14;;;;;;;;;49.25;39.50;;;;;14.55;72.99;102072.16;4994307;28;46004;-80
2022/03/28 04:24:40;;;;;;;;;44.00;36.50;;;;;14.54;73.45;102072.97;4993844;28;45877;-74
2022/03/28 04:27:05;;;;;;;;;44.50;36.00;;;;;14.42;74.06;102058.44;4993576;28;45501;-74
2022/03/28 04:29:31;;;;;;;;;49.25;38.50;;;;;14.51;73.92;102075.44;4994064;27;45428;-73
2022/03/28 04:31:57;;;;;;;;;46.00;36.00;;;;;14.55;75.51;102079.09;4994728;27;45605;-75
2022/03/28 04:34:22;;;;;;;;;46.25;39.00;;;;;14.54;75.69;102078.16;4994168;28;45600;-75
2022/03/28 04:36:48;;;;;;;;;50.50;39.75;;;;;14.52;76.27;102076.31;4993774;28;45287;-73
2022/03/28 04:39:13;;;;;;;;;49.75;38.75;;;;;14.46;77.01;102066.50;4994060;28;45412;-73
2022/03/28 04:41:39;;;;;;;;;44.75;38.00;;;;;14.45;77.02;102066.41;4994656;28;45224;-74
2022/03/28 04:44:05;;;;;;;;;53.25;42.00;;;;;14.43;77.91;102062.84;4993809;28;45359;-73
2022/03/28 04:46:31;;;;;;;;;46.75;38.00;;;;;14.48;77.93;102067.47;4993631;28;45516;-75
2022/03/28 04:48:57;;;;;;;;;46.25;36.25;;;;;14.44;77.78;102051.59;4993675;28;45327;-74
2022/03/28 04:51:22;;;;;;;;;50.25;39.50;;;;;14.43;78.22;102053.28;4994433;27;45499;-77
2022/03/28 04:53:48;;;;;;;;;52.25;41.75;;;;;14.50;78.31;102058.00;4975992;28;45610;-75
2022/03/28 04:56:14;;;;;;;;;47.50;39.75;;;;;14.47;77.96;102056.97;4975658;28;45489;-75
2022/03/28 04:58:40;;;;;;;;;26.50;21.00;;;;;14.41;78.38;102047.16;4998729;28;45447;-75
2022/03/28 05:01:05;;;;;;;;;42.25;35.50;;;;;14.45;78.19;102054.28;5013339;27;45247;-74
2022/03/28 05:03:31;;;;;;;;;49.50;39.75;;;;;14.43;78.42;102044.59;5013179;27;46044;-74
2022/03/28 05:05:56;;;;;;;;;50.75;40.00;;;;;14.49;78.57;102057.91;4996109;28;45354;-76
2022/03/28 05:08:22;;;;;;;;;49.00;38.25;;;;;14.44;78.93;102052.47;4993788;28;45366;-75
2022/03/28 05:10:47;;;;;;;;;46.25;39.00;;;;;14.38;79.87;102055.69;4993674;28;45638;-76
2022/03/28 05:13:13;;;;;;;;;53.00;41.25;;;;;14.38;79.68;102060.00;4993321;28;45274;-76
2022/03/28 05:15:39;;;;;;;;;48.00;39.00;;;;;14.37;79.69;102045.19;5005708;27;45559;-75
2022/03/28 05:18:04;;;;;;;;;48.50;38.50;;;;;14.35;78.76;102039.91;5014108;27;45218;-73
2022/03/28 05:20:30;;;;;;;;;50.50;41.00;;;;;14.33;78.82;102038.03;5009980;28;45239;-75
2022/03/28 05:22:56;;;;;;;;;50.25;40.00;;;;;14.42;78.70;102055.84;4996416;28;46141;-75
2022/03/28 05:25:21;;;;;;;;;51.75;39.00;;;;;14.40;78.11;102055.78;5013254;28;45377;-76
2022/03/28 05:27:48;;;;;;;;;47.00;38.00;;;;;14.43;77.43;102060.25;4996049;28;45488;-73
2022/03/28 05:30:15;;;;;;;;;46.25;36.50;;;;;14.43;76.89;102057.63;4998199;28;45491;-79
2022/03/28 05:32:42;;;;;;;;;45.00;36.75;;;;;14.42;77.84;102054.13;4992799;28;45637;-74
2022/03/28 05:35:08;;;;;;;;;45.00;34.75;;;;;14.37;77.91;102046.06;4992327;28;45278;-73
2022/03/28 05:37:34;;;;;;;;;53.00;40.00;;;;;14.41;78.19;102057.56;4993232;28;45273;-73
2022/03/28 05:40:01;;;;;;;;;48.75;38.75;;;;;14.37;78.84;102060.81;4993086;28;45552;-74
2022/03/28 05:42:27;;;;;;;;;48.00;38.00;;;;;14.28;78.94;102052.56;4992640;28;46194;-73
2022/03/28 05:44:52;;;;;;;;;48.75;39.00;;;;;14.25;78.73;102048.09;4974331;28;45431;-75
2022/03/28 05:47:18;;;;;;;;;42.75;35.00;;;;;14.31;78.64;102058.81;4992621;28;45454;-74
2022/03/28 05:49:44;;;;;;;;;49.50;38.75;;;;;14.33;79.15;102051.06;4992751;28;45903;-74
2022/03/28 05:52:09;;;;;;;;;50.00;36.25;;;;;14.31;79.36;102048.38;4974942;28;45454;-73
2022/03/28 05:54:35;;;;;;;;;50.75;41.75;;;;;14.30;80.40;102032.69;4976614;28;45509;-74
2022/03/28 05:57:01;;;;;;;;;52.25;39.00;;;;;14.38;80.06;102047.88;4996518;28;45420;-76
2022/03/28 05:59:27;;;;;;;;;50.75;40.75;;;;;14.30;79.58;102024.88;4996440;28;45277;-76
2022/03/28 06:01:54;;;;;;;;;52.00;41.75;;;;;14.44;80.41;102046.41;4994734;28;46114;-74
2022/03/28 06:04:20;;;;;;;;;49.25;39.75;;;;;14.43;79.94;102047.22;4995206;28;45438;-74
2022/03/28 06:06:46;;;;;;;;;49.25;40.50;;;;;14.44;79.80;102044.66;4995148;28;45474;-75
2022/03/28 06:09:12;;;;;;;;;53.00;42.00;;;;;14.43;79.97;102036.78;4992103;28;45525;-74
2022/03/28 06:11:37;;;;;;;;;51.50;40.75;;;;;14.47;79.46;102047.44;4994647;28;45911;-74
2022/03/28 06:14:04;;;;;;;;;51.25;42.00;;;;;14.40;79.99;102041.03;4995092;28;45376;-74
2022/03/28 06:16:30;;;;;;;;;51.00;39.75;;;;;14.34;80.23;102035.53;4995482;27;45868;-74
2022/03/28 06:18:56;;;;;;;;;50.25;40.00;;;;;14.40;80.37;102048.84;4994049;27;45625;-74
2022/03/28 06:21:22;;;;;;;;;51.00;41.00;;;;;14.44;80.39;102047.28;4994240;28;45623;-76
2022/03/28 06:23:48;;;;;;;;;51.75;41.25;;;;;14.38;80.25;102034.84;4977477;28;45504;-74
2022/03/28 06:26:14;;;;;;;;;51.25;42.75;;;;;14.47;80.56;102044.81;4997349;28;45463;-74
2022/03/28 06:28:41;;;;;;;;;56.25;41.50;;;;;14.47;80.41;102046.56;4994966;28;45470;-76
2022/03/28 06:31:08;;;;;;;;;52.75;42.00;;;;;14.43;81.30;102031.56;4994517;28;46294;-75
2022/03/28 06:33:34;;;;;;;;;55.75;41.50;;;;;14.47;81.78;102041.34;4996890;28;45458;-74
2022/03/28 06:36:00;;;;;;;;;49.75;40.00;;;;;14.39;82.92;102018.38;5016365;27;45896;-73
2022/03/28 06:38:26;;;;;;;;;52.50;41.75;;;;;14.47;82.92;102036.13;5018697;27;45461;-74
2022/03/28 06:40:52;;;;;;;;;47.50;39.00;;;;;14.43;83.93;102034.19;4999882;27;45532;-74
2022/03/28 06:43:18;;;;;;;;;51.50;40.00;;;;;14.47;84.37;102041.34;4992427;28;45422;-74
2022/03/28 06:45:44;;;;;;;;;55.75;44.00;;;;;14.47;85.22;102042.22;4993033;28;45667;-74
2022/03/28 06:48:09;;;;;;;;;55.75;43.00;;;;;14.35;85.22;102031.19;4994535;28;45542;-74
2022/03/28 06:50:35;;;;;;;;;55.25;43.25;;;;;14.42;85.30;102043.69;5025702;27;46137;-76
2022/03/28 06:53:02;;;;;;;;;52.75;42.00;;;;;14.37;86.02;102039.97;4994538;28;45508;-75
2022/03/28 06:55:28;;;;;;;;;57.75;45.50;;;;;14.24;85.86;102025.47;4997608;28;45437;-75
2022/03/28 06:57:55;;;;;;;;;58.00;43.25;;;;;14.20;87.71;102031.34;5015163;28;45408;-74
2022/03/28 07:00:20;;;;;;;;;57.50;45.25;;;;;14.20;88.37;102040.03;5008818;27;45501;-74
2022/03/28 07:02:47;;;;;;;;;58.50;44.25;;;;;14.12;90.08;102030.94;5047476;27;45351;-74
2022/03/28 07:05:14;;;;;;;;;55.50;45.25;;;;;14.12;90.90;102033.56;5001476;28;45418;-81
2022/03/28 07:07:41;;;;;;;;;58.50;45.50;;;;;14.05;92.67;102023.66;5013962;27;45278;-77
2022/03/28 07:10:08;;;;;;;;;54.50;43.25;;;;;14.11;93.64;102029.16;4995442;28;45389;-80
2022/03/28 07:12:33;;;;;;;;;56.75;44.50;;;;;14.13;93.63;102026.66;5015330;28;45942;-75
2022/03/28 07:14:59;;;;;;;;;59.00;45.00;;;;;14.13;94.77;102027.53;5005038;28;45533;-76
2022/03/28 07:17:24;;;;;;;;;56.50;45.00;;;;;14.20;95.58;102029.59;4995411;28;45463;-76
2022/03/28 07:19:50;;;;;;;;;57.00;43.00;;;;;14.27;94.69;102029.94;4994657;28;46088;-75
2022/03/28 07:22:16;;;;;;;;;56.50;44.25;;;;;14.23;95.49;102008.06;4994387;28;45389;-76
2022/03/28 07:24:41;;;;;;;;;58.00;44.75;;;;;14.36;96.74;102018.22;4994365;28;45518;-75
2022/03/28 07:27:07;;;;;;;;;56.75;44.25;;;;;14.37;96.83;102013.94;4994295;27;45465;-74
2022/03/28 07:29:33;;;;;;;;;54.75;44.75;;;;;14.49;96.46;102019.75;4995473;28;46076;-73
2022/03/28 07:31:58;;;;;;;;;57.00;45.75;;;;;14.57;95.46;102030.53;4994029;28;45269;-72
2022/03/28 07:34:30;;;;;;;;;54.75;43.75;;;;;14.65;95.08;102033.50;4994804;28;45422;-74
2022/03/28 07:37:02;;;;;;;;;65.25;48.75;;;;;14.63;95.35;102022.13;4994579;28;45456;-77
2022/03/28 07:39:28;;;;;;;;;56.00;43.00;;;;;14.73;93.96;102032.19;5002732;28;45496;-75
2022/03/28 07:41:54;;;;;;;;;56.00;43.25;;;;;14.79;93.90;102029.88;5000601;27;45418;-76
2022/03/28 07:44:20;;;;;;;;;59.00;44.50;;;;;14.80;93.74;102009.88;5003395;28;45809;-80
2022/03/28 07:46:46;;;;;;;;;55.75;44.00;;;;;14.83;93.29;102016.16;4997200;28;45447;-79
2022/03/28 07:49:12;;;;;;;;;57.50;44.00;;;;;14.91;94.53;102020.84;4976000;28;46335;-77
2022/03/28 07:51:38;;;;;;;;;60.00;44.75;;;;;14.94;93.13;102011.44;4980270;28;46008;-78
2022/03/28 07:54:04;;;;;;;;;56.50;44.00;;;;;14.97;92.74;102018.50;4998543;28;45437;-78
2022/03/28 07:56:33;;;;;;;;;60.25;45.75;;;;;15.03;92.43;102013.56;4995001;28;45255;-80
2022/03/28 07:58:59;;;;;;;;;57.50;44.25;;;;;15.08;91.88;102016.41;5009282;27;46319;-77
2022/03/28 08:01:25;;;;;;;;;57.75;44.25;;;;;15.10;91.89;102010.41;5012396;28;45819;-76
2022/03/28 08:03:51;;;;;;;;;64.00;49.00;;;;;15.16;92.31;102015.03;5000008;28;45525;-78
2022/03/28 08:06:17;;;;;;;;;62.00;46.25;;;;;15.05;91.64;102003.22;4999547;28;45518;-76
2022/03/28 08:08:43;;;;;;;;;54.00;44.00;;;;;15.14;91.25;102012.34;5014031;28;45247;-77
2022/03/28 08:11:09;;;;;;;;;56.75;45.50;;;;;15.07;91.02;101994.63;5001864;27;45246;-78
2022/03/28 08:13:35;;;;;;;;;59.00;45.25;;;;;15.13;91.51;102013.19;4980480;28;45332;-77
2022/03/28 08:16:01;;;;;;;;;59.25;44.00;;;;;15.01;92.23;101976.97;4988025;28;45378;-76
2022/03/28 08:18:27;;;;;;;;;55.00;43.00;;;;;15.20;90.78;102009.13;4993125;28;45974;-77
2022/03/28 08:20:53;;;;;;;;;57.00;45.50;;;;;15.22;91.01;102007.50;4994121;28;45305;-80
2022/03/28 08:23:23;;;;;;;;;57.50;45.75;;;;;15.24;90.70;102007.53;4995398;28;45429;-72
2022/03/28 08:25:50;;;;;;;;;58.75;46.00;;;;;15.24;91.39;101995.38;4994708;27;45411;-73
2022/03/28 08:28:16;;;;;;;;;60.00;46.00;;;;;15.34;91.06;102004.53;4993485;28;45403;-78
2022/03/28 08:30:42;;;;;;;;;60.75;47.00;;;;;15.41;90.77;102006.56;4998519;28;45421;-78
2022/03/28 08:33:07;;;;;;;;;59.00;46.25;;;;;15.43;89.56;101996.22;4985674;28;46245;-74
2022/03/28 08:35:33;;;;;;;;;58.25;45.00;;;;;15.52;89.94;102001.84;4974922;28;45384;-73
2022/03/28 08:37:59;;;;;;;;;55.00;42.75;;;;;15.55;89.76;101994.13;4986222;28;45738;-73
2022/03/28 08:40:24;;;;;;;;;60.75;47.50;;;;;15.65;89.88;101992.81;4994138;28;45461;-72
2022/03/28 08:42:51;;;;;;;;;59.75;47.00;;;;;15.71;89.19;101989.56;4992137;28;45595;-72
2022/03/28 08:45:17;;;;;;;;;61.25;48.00;;;;;15.77;89.02;101995.94;4993291;28;45609;-74
2022/03/28 08:47:46;;;;;;;;;60.75;46.25;;;;;15.81;88.10;101989.13;4993543;28;45258;-74
2022/03/28 08:50:13;;;;;;;;;62.00;47.75;;;;;15.87;87.78;101996.38;4996317;27;45926;-72
2022/03/28 08:52:42;;;;;;;;;62.25;48.50;;;;;15.89;87.68;101992.97;5002184;27;46742;-75
2022/03/28 08:55:10;;;;;;;;;60.00;44.25;;;;;15.93;87.43;101996.59;4993476;28;45359;-74
2022/03/28 08:57:36;;;;;;;;;61.75;46.75;;;;;15.92;87.19;101981.78;4993424;28;45493;-74
2022/03/28 09:00:04;;;;;;;;;60.25;47.50;;;;;16.04;87.57;101991.84;4993265;28;45440;-73
2022/03/28 09:02:47;;;;;;;;;65.25;50.00;;;;;16.08;86.60;101989.41;4992829;28;45568;-74
2022/03/28 09:05:14;;;;;;;;;60.25;46.50;;;;;16.16;86.04;101983.59;4998836;28;45304;-73
2022/03/28 09:07:41;;;;;;;;;67.00;50.00;;;;;16.22;85.99;101982.13;5000353;28;45851;-78
2022/03/28 09:10:18;;;;;;;;;59.75;46.50;;;;;16.28;85.21;101978.88;4993263;28;45950;-73
2022/03/28 09:13:05;;;;;;;;;65.50;47.50;;;;;16.29;84.41;101975.44;4992531;28;45473;-77
2022/03/28 09:15:45;;;;;;;;;60.00;45.50;;;;;16.38;84.28;101982.75;5005633;28;45497;-76
2022/03/28 09:18:20;;;;;;;;;60.25;47.75;;;;;16.44;84.21;101982.13;5009721;27;45476;-75
2022/03/28 09:20:54;;;;;;;;;62.75;49.25;;;;;16.48;84.33;101973.53;4994614;28;45339;-74
2022/03/28 09:23:38;;;;;;;;;58.50;47.50;;;;;16.56;84.15;101969.53;4991805;28;45505;-73
2022/03/28 09:26:16;;;;;;;;;58.00;48.50;;;;;16.63;83.63;101962.81;4992949;28;45304;-73
2022/03/28 09:28:50;;;;;;;;;62.25;48.25;;;;;16.68;82.69;101969.09;4992241;27;45456;-74
2022/03/28 09:31:31;;;;;;;;;63.00;48.50;;;;;16.73;82.48;101969.28;4995529;28;45924;-72
2022/03/28 09:33:57;;;;;;;;;60.25;45.25;;;;;16.79;81.81;101973.00;4995792;28;45284;-72
2022/03/28 09:36:40;;;;;;;;;48.25;41.50;;;;;16.79;82.18;101959.94;4996073;28;45390;-74
2022/03/28 09:39:09;;;;;;;;;54.25;43.25;;;;;16.92;79.31;101963.03;4992791;28;45480;-75
2022/03/28 09:41:35;;;;;;;;;56.50;44.00;;;;;16.95;78.61;101960.56;4995795;27;45537;-72
2022/03/28 09:44:01;;;;;;;;;64.25;47.25;;;;;16.94;78.07;101950.94;4995554;28;45355;-73
2022/03/28 09:46:28;;;;;;;;;57.75;45.50;;;;;17.09;77.69;101961.06;4995968;28;45264;-74
2022/03/28 09:48:55;;;;;;;;;58.75;44.25;;;;;17.08;77.10;101940.97;5002795;28;45174;-76
2022/03/28 09:51:24;;;;;;;;;59.25;45.75;;;;;17.18;76.06;101948.31;5002031;27;46015;-75
2022/03/28 09:53:49;;;;;;;;;54.50;44.50;;;;;17.27;75.43;101948.63;4996775;28;45386;-76
2022/03/28 09:56:16;;;;;;;;;59.50;44.00;;;;;17.33;74.46;101947.94;4978744;28;45644;-76
2022/03/28 09:58:56;;;;;;;;;59.00;47.25;;;;;17.37;74.39;101941.09;4996016;28;45380;-73
2022/03/28 10:01:26;;;;;;;;;64.25;48.25;;;;;17.45;74.18;101942.25;4995833;28;46094;-72
2022/03/28 10:03:58;;;;;;;;;57.75;46.25;;;;;17.52;74.38;101940.72;4996213;28;45316;-73
2022/03/28 10:06:23;;;;;;;;;52.75;42.50;;;;;17.56;74.10;101938.25;5063202;27;45492;-73
2022/03/28 10:08:50;;;;;;;;;57.00;43.25;;;;;17.60;73.54;101934.94;4995367;28;45448;-73
2022/03/28 10:11:16;;;;;;;;;53.75;42.75;;;;;17.66;72.71;101930.72;4991054;27;45413;-73
2022/03/28 10:13:43;;;;;;;;;54.75;41.75;;;;;17.69;72.54;101933.44;4994955;28;45323;-74
2022/03/28 10:16:09;;;;;;;;;48.75;39.25;;;;;17.75;71.93;101929.31;4995349;28;45611;-75
2022/03/28 10:18:39;;;;;;;;;54.75;42.75;;;;;17.81;71.12;101925.13;5002472;27;46721;-74
2022/03/28 10:21:18;;;;;;;;;56.50;44.50;;;;;17.87;70.19;101914.84;5008677;27;45754;-75
2022/03/28 10:23:51;;;;;;;;;55.25;43.00;;;;;17.93;70.59;101917.63;5013020;27;45396;-74
2022/03/28 10:26:24;;;;;;;;;58.50;43.25;;;;;17.95;70.14;101908.09;4991535;27;45532;-72
2022/03/28 10:29:11;;;;;;;;;58.00;46.00;;;;;18.02;69.44;101906.59;4993096;28;45497;-74
2022/03/28 10:31:55;;;;;;;;;56.75;43.75;;;;;18.09;69.20;101901.63;4993322;28;45705;-73
2022/03/28 10:34:42;;;;;;;;;55.25;42.50;;;;;18.16;68.61;101900.06;4995880;27;45374;-74
2022/03/28 10:37:35;;;;;;;;;54.50;42.00;;;;;18.09;68.58;101864.91;4995796;28;45224;-75
2022/03/28 10:40:12;;;;;;;;;54.25;39.25;;;;;18.30;67.66;101886.50;4970376;28;46992;-75
2022/03/28 10:42:47;;;;;;;;;51.25;38.75;;;;;18.36;66.10;101884.94;4994839;27;45307;-73
2022/03/28 10:45:19;;;;;;;;;49.00;40.50;;;;;18.38;65.39;101872.75;4998122;28;45564;-75
2022/03/28 10:47:49;;;;;;;;;49.25;37.50;;;;;18.48;63.59;101878.28;4996194;28;45711;-81
2022/03/28 10:50:20;;;;;;;;;48.25;37.75;;;;;18.58;62.36;101880.31;5000580;28;46489;-75
2022/03/28 10:53:08;;;;;;;;;45.50;34.50;;;;;18.62;62.51;101869.09;4995139;28;45822;-80
2022/03/28 10:55:41;;;;;;;;;42.25;36.25;;;;;18.69;59.74;101864.91;4995781;28;45288;-75
2022/03/28 10:58:20;;;;;;;;;41.75;31.75;;;;;18.73;59.67;101864.16;4980305;28;45477;-85
2022/03/28 11:01:05;;;;;;;;;35.75;29.25;;;;;18.77;59.03;101852.00;4992689;28;45507;-81
2022/03/28 11:03:53;;;;;;;;;42.50;32.00;;;;;18.81;58.40;101852.13;4974386;28;45346;-76
2022/03/28 11:06:41;;;;;;;;;33.50;29.75;;;;;18.83;57.84;101836.41;5007134;28;45342;-79
2022/03/28 11:09:07;;;;;;;;;42.75;34.00;;;;;18.79;57.04;101819.72;4983886;27;45383;-83
2022/03/28 11:11:33;;;;;;;;;47.50;34.75;;;;;18.95;57.15;101826.28;5004946;28;45525;-78
2022/03/28 11:14:10;;;;;;;;;28.00;25.50;;;;;19.04;57.41;101825.66;5010259;27;45386;-77